sensor_id;sensor_type;location;lat;lon;timestamp;P1;durP1;ratioP1;P2;durP2;ratioP2
83054;SDS011;72877;52.130;5.582;2024-01-07T00:02:06;26.40;;;16.02;;
83054;SDS011;72877;52.130;5.582;2024-01-07T00:04:31;28.08;;;16.00;;
83054;SDS011;72877;52.130;5.582;2024-01-07T00:06:59;31.20;;;17.10;;
83054;SDS011;72877;52.130;5.582;2024-01-07T00:09:24;27.77;;;14.80;;
83054;SDS011;72877;52.130;5.582;2024-01-07T00:11:49;24.33;;;15.95;;
83054;SDS011;72877;52.130;5.582;2024-01-07T00:14:15;26.33;;;15.50;;
83054;SDS011;72877;52.130;5.582;2024-01-07T00:16:41;24.77;;;15.23;;
83054;SDS011;72877;52.130;5.582;2024-01-07T00:19:06;24.92;;;15.43;;
83054;SDS011;72877;52.130;5.582;2024-01-07T00:21:32;27.52;;;16.20;;
83054;SDS011;72877;52.130;5.582;2024-01-07T00:23:57;29.95;;;16.30;;
83054;SDS011;72877;52.130;5.582;2024-01-07T00:26:22;28.38;;;14.95;;
83054;SDS011;72877;52.130;5.582;2024-01-07T00:28:47;28.05;;;15.90;;
83054;SDS011;72877;52.130;5.582;2024-01-07T00:31:13;25.17;;;15.35;;
83054;SDS011;72877;52.130;5.582;2024-01-07T00:33:38;26.50;;;14.63;;
83054;SDS011;72877;52.130;5.582;2024-01-07T00:36:03;29.13;;;15.70;;
83054;SDS011;72877;52.130;5.582;2024-01-07T00:38:29;24.95;;;15.57;;
83054;SDS011;72877;52.130;5.582;2024-01-07T00:40:54;28.35;;;14.73;;
83054;SDS011;72877;52.130;5.582;2024-01-07T00:43:19;25.17;;;15.68;;
83054;SDS011;72877;52.130;5.582;2024-01-07T00:45:44;24.17;;;14.43;;
83054;SDS011;72877;52.130;5.582;2024-01-07T00:48:10;26.95;;;16.63;;
83054;SDS011;72877;52.130;5.582;2024-01-07T00:50:35;26.30;;;15.43;;
83054;SDS011;72877;52.130;5.582;2024-01-07T00:53:00;30.15;;;15.95;;
83054;SDS011;72877;52.130;5.582;2024-01-07T00:55:25;29.55;;;18.25;;
83054;SDS011;72877;52.130;5.582;2024-01-07T00:57:50;33.50;;;18.40;;
83054;SDS011;72877;52.130;5.582;2024-01-07T01:00:16;32.17;;;18.30;;
83054;SDS011;72877;52.130;5.582;2024-01-07T01:02:41;32.85;;;18.02;;
83054;SDS011;72877;52.130;5.582;2024-01-07T01:05:07;28.70;;;16.48;;
83054;SDS011;72877;52.130;5.582;2024-01-07T01:07:32;33.60;;;19.23;;
83054;SDS011;72877;52.130;5.582;2024-01-07T01:09:58;32.78;;;18.55;;
83054;SDS011;72877;52.130;5.582;2024-01-07T01:12:23;37.50;;;20.05;;
83054;SDS011;72877;52.130;5.582;2024-01-07T01:14:48;36.08;;;18.13;;
83054;SDS011;72877;52.130;5.582;2024-01-07T01:17:13;32.83;;;19.27;;
83054;SDS011;72877;52.130;5.582;2024-01-07T01:19:38;37.65;;;19.05;;
83054;SDS011;72877;52.130;5.582;2024-01-07T01:22:04;33.67;;;19.30;;
83054;SDS011;72877;52.130;5.582;2024-01-07T01:24:29;35.67;;;19.17;;
83054;SDS011;72877;52.130;5.582;2024-01-07T01:26:54;31.35;;;18.45;;
83054;SDS011;72877;52.130;5.582;2024-01-07T01:29:19;33.13;;;18.15;;
83054;SDS011;72877;52.130;5.582;2024-01-07T01:31:44;35.45;;;19.98;;
83054;SDS011;72877;52.130;5.582;2024-01-07T01:34:10;35.65;;;19.35;;
83054;SDS011;72877;52.130;5.582;2024-01-07T01:36:35;36.42;;;20.00;;
83054;SDS011;72877;52.130;5.582;2024-01-07T01:39:00;30.70;;;18.67;;
83054;SDS011;72877;52.130;5.582;2024-01-07T01:41:25;39.88;;;20.77;;
83054;SDS011;72877;52.130;5.582;2024-01-07T01:43:51;31.08;;;17.98;;
83054;SDS011;72877;52.130;5.582;2024-01-07T01:46:16;36.33;;;19.88;;
83054;SDS011;72877;52.130;5.582;2024-01-07T01:48:42;30.02;;;18.40;;
83054;SDS011;72877;52.130;5.582;2024-01-07T01:51:07;36.22;;;19.50;;
83054;SDS011;72877;52.130;5.582;2024-01-07T01:53:33;34.00;;;18.63;;
83054;SDS011;72877;52.130;5.582;2024-01-07T01:55:58;29.85;;;17.17;;
83054;SDS011;72877;52.130;5.582;2024-01-07T01:58:25;32.22;;;17.88;;
83054;SDS011;72877;52.130;5.582;2024-01-07T02:00:51;31.98;;;18.20;;
83054;SDS011;72877;52.130;5.582;2024-01-07T02:03:16;34.00;;;18.88;;
83054;SDS011;72877;52.130;5.582;2024-01-07T02:05:42;35.08;;;19.90;;
83054;SDS011;72877;52.130;5.582;2024-01-07T02:08:07;35.60;;;19.40;;
83054;SDS011;72877;52.130;5.582;2024-01-07T02:10:33;35.28;;;17.98;;
83054;SDS011;72877;52.130;5.582;2024-01-07T02:13:01;34.40;;;18.70;;
83054;SDS011;72877;52.130;5.582;2024-01-07T02:15:26;33.00;;;18.23;;
83054;SDS011;72877;52.130;5.582;2024-01-07T02:17:52;36.47;;;19.35;;
83054;SDS011;72877;52.130;5.582;2024-01-07T02:20:17;30.92;;;17.95;;
83054;SDS011;72877;52.130;5.582;2024-01-07T02:22:42;32.10;;;18.13;;
83054;SDS011;72877;52.130;5.582;2024-01-07T02:25:07;38.75;;;20.25;;
83054;SDS011;72877;52.130;5.582;2024-01-07T02:27:33;31.27;;;18.38;;
83054;SDS011;72877;52.130;5.582;2024-01-07T02:29:59;28.58;;;16.48;;
83054;SDS011;72877;52.130;5.582;2024-01-07T02:32:24;30.67;;;18.88;;
83054;SDS011;72877;52.130;5.582;2024-01-07T02:34:49;30.20;;;18.85;;
83054;SDS011;72877;52.130;5.582;2024-01-07T02:37:14;29.17;;;17.52;;
83054;SDS011;72877;52.130;5.582;2024-01-07T02:39:39;35.22;;;19.88;;
83054;SDS011;72877;52.130;5.582;2024-01-07T02:42:05;36.03;;;19.08;;
83054;SDS011;72877;52.130;5.582;2024-01-07T02:44:30;37.70;;;19.95;;
83054;SDS011;72877;52.130;5.582;2024-01-07T02:46:55;34.25;;;18.70;;
83054;SDS011;72877;52.130;5.582;2024-01-07T02:49:20;32.03;;;18.60;;
83054;SDS011;72877;52.130;5.582;2024-01-07T02:51:46;34.75;;;20.20;;
83054;SDS011;72877;52.130;5.582;2024-01-07T02:54:14;29.05;;;16.95;;
83054;SDS011;72877;52.130;5.582;2024-01-07T02:56:39;30.30;;;18.20;;
83054;SDS011;72877;52.130;5.582;2024-01-07T02:59:04;31.45;;;18.88;;
83054;SDS011;72877;52.130;5.582;2024-01-07T03:01:29;34.92;;;19.73;;
83054;SDS011;72877;52.130;5.582;2024-01-07T03:03:55;36.60;;;19.40;;
83054;SDS011;72877;52.130;5.582;2024-01-07T03:06:20;35.00;;;20.20;;
83054;SDS011;72877;52.130;5.582;2024-01-07T03:08:46;31.67;;;19.23;;
83054;SDS011;72877;52.130;5.582;2024-01-07T03:11:13;34.97;;;20.52;;
83054;SDS011;72877;52.130;5.582;2024-01-07T03:13:39;39.90;;;21.45;;
83054;SDS011;72877;52.130;5.582;2024-01-07T03:16:05;32.47;;;20.50;;
83054;SDS011;72877;52.130;5.582;2024-01-07T03:18:30;35.95;;;20.05;;
83054;SDS011;72877;52.130;5.582;2024-01-07T03:20:55;30.30;;;18.92;;
83054;SDS011;72877;52.130;5.582;2024-01-07T03:23:21;34.67;;;19.63;;
83054;SDS011;72877;52.130;5.582;2024-01-07T03:25:46;35.85;;;19.90;;
83054;SDS011;72877;52.130;5.582;2024-01-07T03:28:11;38.40;;;19.20;;
83054;SDS011;72877;52.130;5.582;2024-01-07T03:30:37;38.50;;;20.08;;
83054;SDS011;72877;52.130;5.582;2024-01-07T03:33:02;34.20;;;20.73;;
83054;SDS011;72877;52.130;5.582;2024-01-07T03:35:27;37.65;;;19.85;;
83054;SDS011;72877;52.130;5.582;2024-01-07T03:37:53;34.13;;;19.67;;
83054;SDS011;72877;52.130;5.582;2024-01-07T03:40:18;41.72;;;20.90;;
83054;SDS011;72877;52.130;5.582;2024-01-07T03:42:43;40.03;;;22.05;;
83054;SDS011;72877;52.130;5.582;2024-01-07T03:45:08;34.58;;;19.83;;
83054;SDS011;72877;52.130;5.582;2024-01-07T03:47:34;36.08;;;20.23;;
83054;SDS011;72877;52.130;5.582;2024-01-07T03:49:59;37.60;;;20.85;;
83054;SDS011;72877;52.130;5.582;2024-01-07T03:52:24;39.72;;;21.88;;
83054;SDS011;72877;52.130;5.582;2024-01-07T03:54:49;33.88;;;19.52;;
83054;SDS011;72877;52.130;5.582;2024-01-07T03:57:14;33.28;;;19.92;;
83054;SDS011;72877;52.130;5.582;2024-01-07T03:59:40;37.28;;;19.48;;
83054;SDS011;72877;52.130;5.582;2024-01-07T04:02:05;40.05;;;21.13;;
83054;SDS011;72877;52.130;5.582;2024-01-07T04:04:31;38.50;;;22.17;;
83054;SDS011;72877;52.130;5.582;2024-01-07T04:06:56;38.15;;;21.27;;
83054;SDS011;72877;52.130;5.582;2024-01-07T04:09:21;38.22;;;20.98;;
83054;SDS011;72877;52.130;5.582;2024-01-07T04:11:46;38.70;;;21.20;;
83054;SDS011;72877;52.130;5.582;2024-01-07T04:14:13;36.63;;;21.90;;
83054;SDS011;72877;52.130;5.582;2024-01-07T04:16:39;35.90;;;20.52;;
83054;SDS011;72877;52.130;5.582;2024-01-07T04:19:04;34.22;;;18.92;;
83054;SDS011;72877;52.130;5.582;2024-01-07T04:21:29;34.88;;;21.42;;
83054;SDS011;72877;52.130;5.582;2024-01-07T04:23:54;35.80;;;20.33;;
83054;SDS011;72877;52.130;5.582;2024-01-07T04:26:19;28.80;;;17.85;;
83054;SDS011;72877;52.130;5.582;2024-01-07T04:28:45;27.30;;;17.92;;
83054;SDS011;72877;52.130;5.582;2024-01-07T04:31:10;32.22;;;17.83;;
83054;SDS011;72877;52.130;5.582;2024-01-07T04:33:35;33.83;;;18.38;;
83054;SDS011;72877;52.130;5.582;2024-01-07T04:36:00;29.98;;;17.67;;
83054;SDS011;72877;52.130;5.582;2024-01-07T04:38:26;29.38;;;17.67;;
83054;SDS011;72877;52.130;5.582;2024-01-07T04:40:51;30.02;;;17.85;;
83054;SDS011;72877;52.130;5.582;2024-01-07T04:43:17;28.55;;;17.90;;
83054;SDS011;72877;52.130;5.582;2024-01-07T04:45:43;29.98;;;17.70;;
83054;SDS011;72877;52.130;5.582;2024-01-07T04:48:08;31.13;;;16.40;;
83054;SDS011;72877;52.130;5.582;2024-01-07T04:50:33;29.08;;;16.83;;
83054;SDS011;72877;52.130;5.582;2024-01-07T04:52:58;28.83;;;16.77;;
83054;SDS011;72877;52.130;5.582;2024-01-07T04:55:24;26.60;;;15.55;;
83054;SDS011;72877;52.130;5.582;2024-01-07T04:57:49;27.40;;;16.13;;
83054;SDS011;72877;52.130;5.582;2024-01-07T05:00:14;27.67;;;16.42;;
83054;SDS011;72877;52.130;5.582;2024-01-07T05:02:40;26.92;;;16.38;;
83054;SDS011;72877;52.130;5.582;2024-01-07T05:05:05;22.75;;;15.13;;
83054;SDS011;72877;52.130;5.582;2024-01-07T05:07:30;24.75;;;14.25;;
83054;SDS011;72877;52.130;5.582;2024-01-07T05:09:55;25.55;;;15.40;;
83054;SDS011;72877;52.130;5.582;2024-01-07T05:12:20;27.83;;;15.02;;
83054;SDS011;72877;52.130;5.582;2024-01-07T05:14:46;24.60;;;14.25;;
83054;SDS011;72877;52.130;5.582;2024-01-07T05:17:11;26.02;;;15.88;;
83054;SDS011;72877;52.130;5.582;2024-01-07T05:19:39;25.35;;;15.40;;
83054;SDS011;72877;52.130;5.582;2024-01-07T05:22:04;24.20;;;14.38;;
83054;SDS011;72877;52.130;5.582;2024-01-07T05:24:30;24.60;;;13.90;;
83054;SDS011;72877;52.130;5.582;2024-01-07T05:26:55;23.52;;;15.38;;
83054;SDS011;72877;52.130;5.582;2024-01-07T05:29:20;20.63;;;13.20;;
83054;SDS011;72877;52.130;5.582;2024-01-07T05:31:45;22.27;;;13.52;;
83054;SDS011;72877;52.130;5.582;2024-01-07T05:34:10;24.48;;;15.00;;
83054;SDS011;72877;52.130;5.582;2024-01-07T05:36:36;23.83;;;14.25;;
83054;SDS011;72877;52.130;5.582;2024-01-07T05:39:01;19.98;;;12.80;;
83054;SDS011;72877;52.130;5.582;2024-01-07T05:41:27;22.42;;;14.07;;
83054;SDS011;72877;52.130;5.582;2024-01-07T05:43:52;21.02;;;13.70;;
83054;SDS011;72877;52.130;5.582;2024-01-07T05:46:17;21.35;;;13.63;;
83054;SDS011;72877;52.130;5.582;2024-01-07T05:48:47;21.35;;;13.02;;
83054;SDS011;72877;52.130;5.582;2024-01-07T05:51:13;21.55;;;13.52;;
83054;SDS011;72877;52.130;5.582;2024-01-07T05:53:39;19.40;;;12.63;;
83054;SDS011;72877;52.130;5.582;2024-01-07T05:56:04;20.58;;;13.80;;
83054;SDS011;72877;52.130;5.582;2024-01-07T05:58:29;23.27;;;13.85;;
83054;SDS011;72877;52.130;5.582;2024-01-07T06:00:55;18.17;;;12.38;;
83054;SDS011;72877;52.130;5.582;2024-01-07T06:03:20;19.55;;;12.30;;
83054;SDS011;72877;52.130;5.582;2024-01-07T06:05:45;21.63;;;13.18;;
83054;SDS011;72877;52.130;5.582;2024-01-07T06:08:10;19.08;;;11.68;;
83054;SDS011;72877;52.130;5.582;2024-01-07T06:10:36;18.88;;;12.65;;
83054;SDS011;72877;52.130;5.582;2024-01-07T06:13:01;19.67;;;12.60;;
83054;SDS011;72877;52.130;5.582;2024-01-07T06:15:28;20.77;;;13.52;;
83054;SDS011;72877;52.130;5.582;2024-01-07T06:17:53;20.17;;;12.65;;
83054;SDS011;72877;52.130;5.582;2024-01-07T06:20:19;18.73;;;12.40;;
83054;SDS011;72877;52.130;5.582;2024-01-07T06:22:44;20.55;;;13.32;;
83054;SDS011;72877;52.130;5.582;2024-01-07T06:25:09;20.45;;;13.73;;
83054;SDS011;72877;52.130;5.582;2024-01-07T06:27:35;22.92;;;13.30;;
83054;SDS011;72877;52.130;5.582;2024-01-07T06:30:00;21.95;;;14.50;;
83054;SDS011;72877;52.130;5.582;2024-01-07T06:32:25;24.38;;;13.73;;
83054;SDS011;72877;52.130;5.582;2024-01-07T06:34:51;20.10;;;13.13;;
83054;SDS011;72877;52.130;5.582;2024-01-07T06:37:17;22.42;;;13.25;;
83054;SDS011;72877;52.130;5.582;2024-01-07T06:39:42;20.00;;;12.98;;
83054;SDS011;72877;52.130;5.582;2024-01-07T06:42:07;23.17;;;13.68;;
83054;SDS011;72877;52.130;5.582;2024-01-07T06:44:32;18.20;;;11.90;;
83054;SDS011;72877;52.130;5.582;2024-01-07T06:46:57;21.77;;;13.52;;
83054;SDS011;72877;52.130;5.582;2024-01-07T06:49:23;18.27;;;13.30;;
83054;SDS011;72877;52.130;5.582;2024-01-07T06:51:48;22.52;;;13.57;;
83054;SDS011;72877;52.130;5.582;2024-01-07T06:54:13;20.55;;;13.80;;
83054;SDS011;72877;52.130;5.582;2024-01-07T06:56:38;17.80;;;11.77;;
83054;SDS011;72877;52.130;5.582;2024-01-07T06:59:03;20.00;;;12.48;;
83054;SDS011;72877;52.130;5.582;2024-01-07T07:01:29;21.35;;;14.40;;
83054;SDS011;72877;52.130;5.582;2024-01-07T07:03:54;23.88;;;14.02;;
83054;SDS011;72877;52.130;5.582;2024-01-07T07:06:19;19.77;;;14.35;;
83054;SDS011;72877;52.130;5.582;2024-01-07T07:08:45;21.67;;;14.65;;
83054;SDS011;72877;52.130;5.582;2024-01-07T07:11:10;21.63;;;14.80;;
83054;SDS011;72877;52.130;5.582;2024-01-07T07:13:35;22.25;;;14.52;;
83054;SDS011;72877;52.130;5.582;2024-01-07T07:16:01;22.30;;;14.15;;
83054;SDS011;72877;52.130;5.582;2024-01-07T07:18:26;23.83;;;15.80;;
83054;SDS011;72877;52.130;5.582;2024-01-07T07:20:51;24.80;;;14.90;;
83054;SDS011;72877;52.130;5.582;2024-01-07T07:23:16;21.00;;;14.05;;
83054;SDS011;72877;52.130;5.582;2024-01-07T07:25:42;21.85;;;13.70;;
83054;SDS011;72877;52.130;5.582;2024-01-07T07:28:07;22.42;;;14.50;;
83054;SDS011;72877;52.130;5.582;2024-01-07T07:30:32;23.10;;;14.77;;
83054;SDS011;72877;52.130;5.582;2024-01-07T07:32:57;24.65;;;16.23;;
83054;SDS011;72877;52.130;5.582;2024-01-07T07:35:22;22.50;;;14.38;;
83054;SDS011;72877;52.130;5.582;2024-01-07T07:37:47;22.83;;;13.90;;
83054;SDS011;72877;52.130;5.582;2024-01-07T07:40:13;19.17;;;12.73;;
83054;SDS011;72877;52.130;5.582;2024-01-07T07:42:38;27.05;;;14.43;;
83054;SDS011;72877;52.130;5.582;2024-01-07T07:45:04;23.00;;;15.07;;
83054;SDS011;72877;52.130;5.582;2024-01-07T07:47:29;21.63;;;14.13;;
83054;SDS011;72877;52.130;5.582;2024-01-07T07:49:55;22.85;;;15.07;;
83054;SDS011;72877;52.130;5.582;2024-01-07T07:52:20;20.60;;;14.43;;
83054;SDS011;72877;52.130;5.582;2024-01-07T07:54:50;20.70;;;13.55;;
83054;SDS011;72877;52.130;5.582;2024-01-07T07:57:15;22.90;;;13.10;;
83054;SDS011;72877;52.130;5.582;2024-01-07T07:59:40;20.80;;;12.63;;
83054;SDS011;72877;52.130;5.582;2024-01-07T08:02:05;18.73;;;12.45;;
83054;SDS011;72877;52.130;5.582;2024-01-07T08:04:31;16.23;;;12.45;;
83054;SDS011;72877;52.130;5.582;2024-01-07T08:06:56;16.48;;;12.52;;
83054;SDS011;72877;52.130;5.582;2024-01-07T08:09:21;15.38;;;10.20;;
83054;SDS011;72877;52.130;5.582;2024-01-07T08:11:46;15.85;;;10.20;;
83054;SDS011;72877;52.130;5.582;2024-01-07T08:14:12;14.18;;;9.68;;
83054;SDS011;72877;52.130;5.582;2024-01-07T08:16:37;13.45;;;9.60;;
83054;SDS011;72877;52.130;5.582;2024-01-07T08:19:02;12.43;;;9.32;;
83054;SDS011;72877;52.130;5.582;2024-01-07T08:21:28;20.58;;;10.50;;
83054;SDS011;72877;52.130;5.582;2024-01-07T08:23:53;14.30;;;10.32;;
83054;SDS011;72877;52.130;5.582;2024-01-07T08:26:19;13.93;;;9.75;;
83054;SDS011;72877;52.130;5.582;2024-01-07T08:28:44;12.93;;;9.23;;
83054;SDS011;72877;52.130;5.582;2024-01-07T08:31:09;11.38;;;8.90;;
83054;SDS011;72877;52.130;5.582;2024-01-07T08:33:35;15.23;;;9.25;;
83054;SDS011;72877;52.130;5.582;2024-01-07T08:36:00;14.00;;;9.73;;
83054;SDS011;72877;52.130;5.582;2024-01-07T08:38:25;14.38;;;9.32;;
83054;SDS011;72877;52.130;5.582;2024-01-07T08:40:51;13.73;;;9.48;;
83054;SDS011;72877;52.130;5.582;2024-01-07T08:43:16;13.25;;;8.68;;
83054;SDS011;72877;52.130;5.582;2024-01-07T08:45:41;17.25;;;8.93;;
83054;SDS011;72877;52.130;5.582;2024-01-07T08:48:06;17.65;;;9.63;;
83054;SDS011;72877;52.130;5.582;2024-01-07T08:50:32;17.35;;;9.13;;
83054;SDS011;72877;52.130;5.582;2024-01-07T08:52:57;13.95;;;9.00;;
83054;SDS011;72877;52.130;5.582;2024-01-07T08:55:22;15.05;;;9.35;;
83054;SDS011;72877;52.130;5.582;2024-01-07T08:57:47;10.63;;;8.13;;
83054;SDS011;72877;52.130;5.582;2024-01-07T09:00:14;13.32;;;9.18;;
83054;SDS011;72877;52.130;5.582;2024-01-07T09:02:39;12.52;;;8.13;;
83054;SDS011;72877;52.130;5.582;2024-01-07T09:05:05;13.43;;;8.77;;
83054;SDS011;72877;52.130;5.582;2024-01-07T09:07:30;15.82;;;8.63;;
83054;SDS011;72877;52.130;5.582;2024-01-07T09:09:57;13.95;;;9.27;;
83054;SDS011;72877;52.130;5.582;2024-01-07T09:12:24;14.13;;;9.10;;
83054;SDS011;72877;52.130;5.582;2024-01-07T09:14:49;12.23;;;8.63;;
83054;SDS011;72877;52.130;5.582;2024-01-07T09:17:14;14.45;;;8.82;;
83054;SDS011;72877;52.130;5.582;2024-01-07T09:19:42;13.23;;;10.18;;
83054;SDS011;72877;52.130;5.582;2024-01-07T09:22:07;13.50;;;9.80;;
83054;SDS011;72877;52.130;5.582;2024-01-07T09:24:32;12.85;;;9.00;;
83054;SDS011;72877;52.130;5.582;2024-01-07T09:26:57;14.82;;;8.43;;
83054;SDS011;72877;52.130;5.582;2024-01-07T09:29:23;14.02;;;8.88;;
83054;SDS011;72877;52.130;5.582;2024-01-07T09:31:48;16.23;;;9.25;;
83054;SDS011;72877;52.130;5.582;2024-01-07T09:34:13;12.93;;;8.98;;
83054;SDS011;72877;52.130;5.582;2024-01-07T09:36:39;12.77;;;8.70;;
83054;SDS011;72877;52.130;5.582;2024-01-07T09:39:05;11.48;;;7.40;;
83054;SDS011;72877;52.130;5.582;2024-01-07T09:41:31;17.45;;;8.88;;
83054;SDS011;72877;52.130;5.582;2024-01-07T09:43:57;14.45;;;8.55;;
83054;SDS011;72877;52.130;5.582;2024-01-07T09:46:23;14.68;;;8.18;;
83054;SDS011;72877;52.130;5.582;2024-01-07T09:48:49;12.07;;;7.10;;
83054;SDS011;72877;52.130;5.582;2024-01-07T09:51:14;12.20;;;7.43;;
83054;SDS011;72877;52.130;5.582;2024-01-07T09:53:40;18.23;;;7.45;;
83054;SDS011;72877;52.130;5.582;2024-01-07T09:58:38;12.38;;;6.68;;
83054;SDS011;72877;52.130;5.582;2024-01-07T10:01:03;12.38;;;6.88;;
83054;SDS011;72877;52.130;5.582;2024-01-07T10:03:30;9.10;;;5.82;;
83054;SDS011;72877;52.130;5.582;2024-01-07T10:05:55;11.10;;;6.15;;
83054;SDS011;72877;52.130;5.582;2024-01-07T10:08:20;8.60;;;5.38;;
83054;SDS011;72877;52.130;5.582;2024-01-07T10:10:46;10.70;;;5.95;;
83054;SDS011;72877;52.130;5.582;2024-01-07T10:13:13;9.60;;;5.50;;
83054;SDS011;72877;52.130;5.582;2024-01-07T10:15:38;9.75;;;5.50;;
83054;SDS011;72877;52.130;5.582;2024-01-07T10:18:04;6.20;;;4.95;;
83054;SDS011;72877;52.130;5.582;2024-01-07T10:20:30;10.13;;;4.65;;
83054;SDS011;72877;52.130;5.582;2024-01-07T10:22:56;6.40;;;5.22;;
83054;SDS011;72877;52.130;5.582;2024-01-07T10:25:21;9.25;;;5.00;;
83054;SDS011;72877;52.130;5.582;2024-01-07T10:27:46;7.78;;;5.53;;
83054;SDS011;72877;52.130;5.582;2024-01-07T10:30:11;9.45;;;5.30;;
83054;SDS011;72877;52.130;5.582;2024-01-07T10:32:37;10.13;;;5.47;;
83054;SDS011;72877;52.130;5.582;2024-01-07T10:35:03;8.68;;;5.45;;
83054;SDS011;72877;52.130;5.582;2024-01-07T10:37:28;7.63;;;5.28;;
83054;SDS011;72877;52.130;5.582;2024-01-07T10:39:54;9.10;;;5.43;;
83054;SDS011;72877;52.130;5.582;2024-01-07T10:42:21;6.22;;;5.15;;
83054;SDS011;72877;52.130;5.582;2024-01-07T10:44:47;7.90;;;4.75;;
83054;SDS011;72877;52.130;5.582;2024-01-07T10:47:12;9.38;;;5.32;;
83054;SDS011;72877;52.130;5.582;2024-01-07T10:49:38;14.93;;;6.28;;
83054;SDS011;72877;52.130;5.582;2024-01-07T10:52:06;10.35;;;4.80;;
83054;SDS011;72877;52.130;5.582;2024-01-07T10:54:33;7.72;;;4.60;;
83054;SDS011;72877;52.130;5.582;2024-01-07T10:56:59;10.05;;;6.18;;
83054;SDS011;72877;52.130;5.582;2024-01-07T10:59:28;7.07;;;4.10;;
83054;SDS011;72877;52.130;5.582;2024-01-07T11:01:54;8.65;;;4.07;;
83054;SDS011;72877;52.130;5.582;2024-01-07T11:09:43;5.65;;;3.97;;
83054;SDS011;72877;52.130;5.582;2024-01-07T11:12:14;10.55;;;4.57;;
83054;SDS011;72877;52.130;5.582;2024-01-07T11:14:43;3.80;;;3.50;;
83054;SDS011;72877;52.130;5.582;2024-01-07T11:17:25;7.03;;;4.38;;
83054;SDS011;72877;52.130;5.582;2024-01-07T11:20:04;3.88;;;3.33;;
83054;SDS011;72877;52.130;5.582;2024-01-07T11:22:29;5.05;;;3.47;;
83054;SDS011;72877;52.130;5.582;2024-01-07T11:24:55;4.70;;;3.08;;
83054;SDS011;72877;52.130;5.582;2024-01-07T11:27:23;5.43;;;3.50;;
83054;SDS011;72877;52.130;5.582;2024-01-07T11:32:29;4.38;;;2.90;;
83054;SDS011;72877;52.130;5.582;2024-01-07T11:34:54;3.97;;;3.20;;
83054;SDS011;72877;52.130;5.582;2024-01-07T11:37:21;8.63;;;3.47;;
83054;SDS011;72877;52.130;5.582;2024-01-07T11:39:47;4.80;;;3.38;;
83054;SDS011;72877;52.130;5.582;2024-01-07T11:42:13;7.75;;;4.03;;
83054;SDS011;72877;52.130;5.582;2024-01-07T11:44:44;3.85;;;2.60;;
83054;SDS011;72877;52.130;5.582;2024-01-07T11:47:10;4.28;;;2.67;;
83054;SDS011;72877;52.130;5.582;2024-01-07T11:49:35;4.30;;;2.58;;
83054;SDS011;72877;52.130;5.582;2024-01-07T11:52:00;4.88;;;3.03;;
83054;SDS011;72877;52.130;5.582;2024-01-07T11:54:27;4.03;;;2.72;;
83054;SDS011;72877;52.130;5.582;2024-01-07T11:56:53;4.55;;;3.17;;
83054;SDS011;72877;52.130;5.582;2024-01-07T11:59:19;5.65;;;2.30;;
83054;SDS011;72877;52.130;5.582;2024-01-07T12:01:44;5.35;;;3.53;;
83054;SDS011;72877;52.130;5.582;2024-01-07T12:04:09;3.97;;;2.60;;
83054;SDS011;72877;52.130;5.582;2024-01-07T12:06:35;4.63;;;3.20;;
83054;SDS011;72877;52.130;5.582;2024-01-07T12:09:00;4.65;;;3.40;;
83054;SDS011;72877;52.130;5.582;2024-01-07T12:11:25;5.32;;;3.70;;
83054;SDS011;72877;52.130;5.582;2024-01-07T12:13:50;6.45;;;2.75;;
83054;SDS011;72877;52.130;5.582;2024-01-07T12:16:16;4.60;;;3.08;;
83054;SDS011;72877;52.130;5.582;2024-01-07T12:18:42;5.60;;;3.40;;
83054;SDS011;72877;52.130;5.582;2024-01-07T12:21:07;3.65;;;2.30;;
83054;SDS011;72877;52.130;5.582;2024-01-07T12:23:36;3.38;;;2.47;;
83054;SDS011;72877;52.130;5.582;2024-01-07T12:26:07;4.20;;;2.58;;
83054;SDS011;72877;52.130;5.582;2024-01-07T12:28:33;5.13;;;2.40;;
83054;SDS011;72877;52.130;5.582;2024-01-07T12:30:58;2.38;;;2.17;;
83054;SDS011;72877;52.130;5.582;2024-01-07T12:33:25;2.97;;;2.60;;
83054;SDS011;72877;52.130;5.582;2024-01-07T12:35:50;5.15;;;2.70;;
83054;SDS011;72877;52.130;5.582;2024-01-07T12:38:16;5.38;;;2.47;;
83054;SDS011;72877;52.130;5.582;2024-01-07T12:40:47;5.57;;;2.20;;
83054;SDS011;72877;52.130;5.582;2024-01-07T12:43:12;3.88;;;2.55;;
83054;SDS011;72877;52.130;5.582;2024-01-07T12:45:37;7.07;;;2.88;;
83054;SDS011;72877;52.130;5.582;2024-01-07T12:48:03;4.43;;;2.33;;
83054;SDS011;72877;52.130;5.582;2024-01-07T12:50:28;3.22;;;1.75;;
83054;SDS011;72877;52.130;5.582;2024-01-07T12:52:55;1.98;;;1.52;;
83054;SDS011;72877;52.130;5.582;2024-01-07T12:55:20;4.28;;;2.25;;
83054;SDS011;72877;52.130;5.582;2024-01-07T12:57:45;3.75;;;1.30;;
83054;SDS011;72877;52.130;5.582;2024-01-07T13:00:10;5.07;;;2.30;;
83054;SDS011;72877;52.130;5.582;2024-01-07T13:02:36;3.88;;;2.00;;
83054;SDS011;72877;52.130;5.582;2024-01-07T13:05:01;4.15;;;2.10;;
83054;SDS011;72877;52.130;5.582;2024-01-07T13:07:28;3.83;;;2.00;;
83054;SDS011;72877;52.130;5.582;2024-01-07T13:09:53;3.85;;;2.40;;
83054;SDS011;72877;52.130;5.582;2024-01-07T13:12:18;4.55;;;2.55;;
83054;SDS011;72877;52.130;5.582;2024-01-07T13:14:43;3.38;;;2.30;;
83054;SDS011;72877;52.130;5.582;2024-01-07T13:17:11;3.20;;;2.20;;
83054;SDS011;72877;52.130;5.582;2024-01-07T13:19:36;2.83;;;2.40;;
83054;SDS011;72877;52.130;5.582;2024-01-07T13:22:01;5.45;;;4.13;;
83054;SDS011;72877;52.130;5.582;2024-01-07T13:24:27;1.83;;;1.73;;
83054;SDS011;72877;52.130;5.582;2024-01-07T13:26:53;5.07;;;1.83;;
83054;SDS011;72877;52.130;5.582;2024-01-07T13:29:18;3.63;;;1.85;;
83054;SDS011;72877;52.130;5.582;2024-01-07T13:31:43;1.95;;;1.77;;
83054;SDS011;72877;52.130;5.582;2024-01-07T13:34:08;1.95;;;1.45;;
83054;SDS011;72877;52.130;5.582;2024-01-07T13:36:33;1.95;;;1.75;;
83054;SDS011;72877;52.130;5.582;2024-01-07T13:38:59;2.95;;;1.80;;
83054;SDS011;72877;52.130;5.582;2024-01-07T13:41:24;2.83;;;2.10;;
83054;SDS011;72877;52.130;5.582;2024-01-07T13:43:53;5.60;;;2.08;;
83054;SDS011;72877;52.130;5.582;2024-01-07T13:46:20;3.85;;;2.00;;
83054;SDS011;72877;52.130;5.582;2024-01-07T13:48:48;4.45;;;1.88;;
83054;SDS011;72877;52.130;5.582;2024-01-07T13:51:13;2.20;;;1.75;;
83054;SDS011;72877;52.130;5.582;2024-01-07T13:53:38;3.15;;;1.90;;
83054;SDS011;72877;52.130;5.582;2024-01-07T13:56:03;4.53;;;2.63;;
83054;SDS011;72877;52.130;5.582;2024-01-07T13:58:29;8.38;;;3.58;;
83054;SDS011;72877;52.130;5.582;2024-01-07T14:00:54;6.57;;;3.45;;
83054;SDS011;72877;52.130;5.582;2024-01-07T14:03:19;5.32;;;2.72;;
83054;SDS011;72877;52.130;5.582;2024-01-07T14:05:45;2.90;;;2.60;;
83054;SDS011;72877;52.130;5.582;2024-01-07T14:08:11;4.93;;;1.85;;
83054;SDS011;72877;52.130;5.582;2024-01-07T14:10:36;2.20;;;1.70;;
83054;SDS011;72877;52.130;5.582;2024-01-07T14:13:01;3.78;;;2.47;;
83054;SDS011;72877;52.130;5.582;2024-01-07T14:15:27;2.90;;;2.20;;
83054;SDS011;72877;52.130;5.582;2024-01-07T14:17:53;5.25;;;2.15;;
83054;SDS011;72877;52.130;5.582;2024-01-07T14:20:18;3.42;;;1.70;;
83054;SDS011;72877;52.130;5.582;2024-01-07T14:22:44;2.58;;;1.75;;
83054;SDS011;72877;52.130;5.582;2024-01-07T14:25:09;5.30;;;1.88;;
83054;SDS011;72877;52.130;5.582;2024-01-07T14:27:34;3.97;;;2.13;;
83054;SDS011;72877;52.130;5.582;2024-01-07T14:29:59;4.20;;;2.15;;
83054;SDS011;72877;52.130;5.582;2024-01-07T14:32:25;3.05;;;2.72;;